createdAt,value
2019-04-22T00:00:54.273Z,10.98
2019-04-22T00:03:32.310Z,10.99
2019-04-22T00:06:12.971Z,10.99
2019-04-22T00:08:49.525Z,10.97
2019-04-22T00:11:25.776Z,10.97
2019-04-22T00:13:51.901Z,11.00
2019-04-22T00:16:19.170Z,11.00
2019-04-22T00:19:01.339Z,11.16
2019-04-22T00:21:20.089Z,10.99
2019-04-22T00:23:49.573Z,10.90
2019-04-22T00:26:23.689Z,10.91
2019-04-22T00:28:52.261Z,10.89
2019-04-22T00:31:25.441Z,10.85
2019-04-22T00:33:48.421Z,10.83
2019-04-22T00:36:23.307Z,10.79
2019-04-22T00:38:54.529Z,10.75
2019-04-22T00:41:23.324Z,10.78
2019-04-22T00:43:59.634Z,10.95
2019-04-22T00:46:27.557Z,10.73
2019-04-22T00:49:11.833Z,10.68
2019-04-22T00:51:22.526Z,10.64
2019-04-22T00:53:46.774Z,10.60
2019-04-22T00:56:28.296Z,10.54
2019-04-22T00:58:50.226Z,10.73
2019-04-22T01:01:23.868Z,10.48
2019-04-22T01:04:02.121Z,10.41
2019-04-22T01:06:19.978Z,10.39
2019-04-22T01:11:29.140Z,10.29
2019-04-22T01:13:53.271Z,10.28
2019-04-22T01:16:23.991Z,10.27
2019-04-22T01:18:55.160Z,10.44
2019-04-22T01:21:29.016Z,10.23
2019-04-22T01:23:51.905Z,10.17
2019-04-22T01:26:20.300Z,10.14
2019-04-22T01:28:46.167Z,10.10
2019-04-22T01:31:11.720Z,10.04
2019-04-22T01:33:42.052Z,10.04
2019-04-22T01:36:25.952Z,9.99
2019-04-22T01:38:58.260Z,9.94
2019-04-22T01:41:32.185Z,10.14
2019-04-22T01:44:05.738Z,9.86
2019-04-22T01:46:42.652Z,9.81
2019-04-22T01:49:02.786Z,9.76
2019-04-22T01:51:40.633Z,9.70
2019-04-22T01:54:05.195Z,9.89
2019-04-22T01:56:36.452Z,9.64
2019-04-22T01:58:54.588Z,9.58
2019-04-22T02:01:41.622Z,9.56
2019-04-22T02:04:01.352Z,9.73
2019-04-22T02:06:35.145Z,9.49
2019-04-22T02:09:09.443Z,9.49
2019-04-22T02:11:43.471Z,9.46
2019-04-22T02:14:05.059Z,9.44
2019-04-22T02:16:33.987Z,9.40
2019-04-22T02:19:11.673Z,9.40
2019-04-22T02:21:31.903Z,9.40
2019-04-22T02:24:02.093Z,9.40
2019-04-22T02:26:36.955Z,9.39
2019-04-22T02:29:03.652Z,9.39
2019-04-22T02:31:44.288Z,9.40
2019-04-22T02:34:14.092Z,9.37
2019-04-22T02:36:38.224Z,9.35
2019-04-22T02:39:16.131Z,9.31
2019-04-22T02:41:51.901Z,9.30
2019-04-22T02:49:22.003Z,9.21
2019-04-22T02:51:35.294Z,9.17
2019-04-22T02:54:33.891Z,9.37
2019-04-22T02:56:48.736Z,9.13
2019-04-22T03:01:50.331Z,9.05
2019-04-22T03:04:11.000Z,9.22
2019-04-22T03:06:38.445Z,8.98
2019-04-22T03:09:12.687Z,8.96
2019-04-22T03:14:08.754Z,9.09
2019-04-22T03:16:41.099Z,8.86
2019-04-22T03:19:18.389Z,8.83
2019-04-22T03:21:40.521Z,8.80
2019-04-22T03:24:23.680Z,8.74
2019-04-22T03:26:45.378Z,8.71
2019-04-22T03:35:09.600Z,8.70
2019-04-22T03:39:38.111Z,8.66
2019-04-22T03:43:08.564Z,8.63
2019-04-22T03:44:31.219Z,8.64
2019-04-22T03:47:02.753Z,8.65
2019-04-22T03:49:41.084Z,8.63
2019-04-22T03:52:05.802Z,8.64
2019-04-22T03:59:41.229Z,8.56
2019-04-22T04:02:14.011Z,8.57
2019-04-22T04:04:25.643Z,8.75
2019-04-22T04:09:23.978Z,8.46
2019-04-22T04:11:59.991Z,8.45
2019-04-22T04:14:26.254Z,8.41
2019-04-22T04:17:06.291Z,8.38
2019-04-22T04:19:34.892Z,8.35
2019-04-22T04:21:57.888Z,8.31
2019-04-22T04:27:07.556Z,8.31
2019-04-22T04:32:09.930Z,8.33
2019-04-22T04:34:43.831Z,8.35
2019-04-22T04:39:26.446Z,8.38
2019-04-22T04:42:05.339Z,8.39
2019-04-22T04:44:50.794Z,8.47
2019-04-22T04:52:06.640Z,8.60
2019-04-22T04:54:30.223Z,8.63
2019-04-22T04:57:17.344Z,8.67
2019-04-22T04:59:41.222Z,8.70
2019-04-22T05:04:42.123Z,8.82
2019-04-22T05:07:38.266Z,8.86
2019-04-22T05:14:26.810Z,9.06
2019-04-22T05:19:26.317Z,9.25
2019-04-22T05:21:58.178Z,9.33
2019-04-22T05:27:02.106Z,9.49
2019-04-22T05:29:32.697Z,9.53
2019-04-22T05:31:57.041Z,9.63
2019-04-22T05:34:44.483Z,9.71
2019-04-22T05:36:58.272Z,9.79
2019-04-22T05:39:21.517Z,9.89
2019-04-22T05:41:59.362Z,9.99
2019-04-22T05:44:29.413Z,10.08
2019-04-22T05:46:54.438Z,10.18
2019-04-22T05:49:26.187Z,10.44
2019-04-22T05:51:54.968Z,10.44
2019-04-22T05:54:28.942Z,10.58
2019-04-22T05:56:55.112Z,10.68
2019-04-22T05:59:27.359Z,10.81
2019-04-22T06:02:05.326Z,10.92
2019-04-22T06:04:25.070Z,11.10
2019-04-22T06:06:57.207Z,11.25
2019-04-22T06:09:30.311Z,11.41
2019-04-22T06:11:55.557Z,11.54
2019-04-22T06:14:24.824Z,11.69
2019-04-22T06:17:08.303Z,11.97
2019-04-22T06:19:33.240Z,12.06
2019-04-22T06:22:04.372Z,12.21
2019-04-22T06:24:38.952Z,12.40
2019-04-22T06:27:11.414Z,12.54
2019-04-22T06:29:41.409Z,12.70
2019-04-22T06:32:22.973Z,12.84
2019-04-22T06:37:11.905Z,13.14
2019-04-22T06:39:34.581Z,13.33
2019-04-22T06:42:08.037Z,13.51
2019-04-22T06:44:36.517Z,13.66
2019-04-22T06:47:05.310Z,13.84
2019-04-22T06:49:35.527Z,14.01
2019-04-22T06:52:10.610Z,14.18
2019-04-22T06:54:32.918Z,14.31
2019-04-22T06:59:33.119Z,14.59
2019-04-22T07:04:33.809Z,14.88
2019-04-22T07:12:06.398Z,15.24
2019-04-22T07:14:35.512Z,15.34
2019-04-22T07:17:04.064Z,15.49
2019-04-22T07:19:36.119Z,15.65
2019-04-22T07:22:08.861Z,15.76
2019-04-22T07:27:08.927Z,15.94
2019-04-22T07:29:32.829Z,16.04
2019-04-22T07:32:07.793Z,16.09
2019-04-22T07:39:35.601Z,16.35
2019-04-22T07:42:10.636Z,16.51
2019-04-22T07:44:38.596Z,16.59
2019-04-22T07:47:17.420Z,16.66
2019-04-22T07:49:41.152Z,16.76
2019-04-22T07:52:05.041Z,16.87
2019-04-22T07:54:42.830Z,16.98
2019-04-22T07:57:15.350Z,17.08
2019-04-22T07:59:35.194Z,17.18
2019-04-22T08:02:10.310Z,17.20
2019-04-22T08:07:27.120Z,17.10
2019-04-22T08:09:47.675Z,17.55
2019-04-22T08:12:04.024Z,17.63
2019-04-22T08:14:43.698Z,17.75
2019-04-22T08:17:30.808Z,18.08
2019-04-22T08:19:43.031Z,18.01
2019-04-22T08:22:12.575Z,18.13
2019-04-22T08:24:43.349Z,18.27
2019-04-22T08:27:11.963Z,18.39
2019-04-22T08:29:52.211Z,18.49
2019-04-22T08:32:05.159Z,18.60
2019-04-22T08:34:37.319Z,18.72
2019-04-22T08:39:35.977Z,18.88
2019-04-22T08:42:24.202Z,18.98
2019-04-22T08:45:03.169Z,19.26
2019-04-22T08:49:50.710Z,19.19
2019-04-22T08:54:49.076Z,19.43
2019-04-22T08:57:11.026Z,19.52
2019-04-22T08:59:46.208Z,19.63
2019-04-22T09:02:12.875Z,19.99
2019-04-22T09:04:45.433Z,19.96
2019-04-22T09:07:20.716Z,20.09
2019-04-22T09:09:44.484Z,20.22
2019-04-22T09:12:21.265Z,20.42
2019-04-22T09:14:42.011Z,20.82
2019-04-22T09:17:17.976Z,21.13
2019-04-22T09:19:44.141Z,21.58
2019-04-22T09:22:12.278Z,22.00
2019-04-22T09:24:43.431Z,22.88
2019-04-22T09:27:22.550Z,22.70
2019-04-22T09:32:13.749Z,23.42
2019-04-22T09:34:40.233Z,24.25
2019-04-22T09:39:40.785Z,24.06
2019-04-22T09:42:14.089Z,24.95
2019-04-22T09:44:40.379Z,24.63
2019-04-22T09:47:13.199Z,24.66
2019-04-22T09:49:51.609Z,24.97
2019-04-22T09:52:10.265Z,25.25
2019-04-22T09:54:51.019Z,25.43
2019-04-22T09:57:20.173Z,25.81
2019-04-22T09:59:43.695Z,25.96
2019-04-22T10:04:46.658Z,26.38
2019-04-22T10:07:19.823Z,26.53
2019-04-22T10:12:31.977Z,26.88
2019-04-22T10:14:48.066Z,26.87
2019-04-22T10:17:15.443Z,26.91
2019-04-22T10:19:40.921Z,27.09
2019-04-22T10:22:20.027Z,26.99
2019-04-22T10:24:48.103Z,27.09
2019-04-22T10:27:16.230Z,27.00
2019-04-22T10:29:51.043Z,27.10
2019-04-22T10:32:12.619Z,27.33
2019-04-22T10:34:30.367Z,27.14
2019-04-22T10:36:54.790Z,27.12
2019-04-22T10:39:20.361Z,27.06
2019-04-22T10:41:50.494Z,27.19
2019-04-22T10:44:19.319Z,27.07
2019-04-22T10:46:48.510Z,27.19
2019-04-22T10:49:18.222Z,27.24
2019-04-22T10:51:47.069Z,27.07
2019-04-22T10:54:15.799Z,26.96
2019-04-22T10:56:45.247Z,27.16
2019-04-22T10:59:14.380Z,27.15
2019-04-22T11:01:44.352Z,27.04
2019-04-22T11:04:13.305Z,27.02
2019-04-22T11:06:51.810Z,27.07
2019-04-22T11:09:12.493Z,26.56
2019-04-22T11:11:48.793Z,26.92
2019-04-22T11:14:12.690Z,26.90
2019-04-22T11:16:41.593Z,26.81
2019-04-22T11:19:11.846Z,27.71
2019-04-22T11:21:41.340Z,27.20
2019-04-22T11:24:10.575Z,27.11
2019-04-22T11:26:39.095Z,27.14
2019-04-22T11:29:07.762Z,27.23
2019-04-22T11:31:36.565Z,27.16
2019-04-22T11:34:06.255Z,27.09
2019-04-22T11:36:34.760Z,27.11
2019-04-22T11:39:06.088Z,27.20
2019-04-22T11:41:33.867Z,27.10
2019-04-22T11:44:03.125Z,27.00
2019-04-22T11:46:31.660Z,27.17
2019-04-22T11:49:00.348Z,27.09
2019-04-22T11:51:29.803Z,27.14
2019-04-22T11:53:58.784Z,27.19
2019-04-22T11:56:27.380Z,27.10
2019-04-22T11:58:57.072Z,27.16
2019-04-22T12:01:26.665Z,27.29
2019-04-22T12:03:55.806Z,27.20
2019-04-22T12:06:24.390Z,27.05
2019-04-22T12:08:54.223Z,27.22
2019-04-22T12:11:22.974Z,27.20
2019-04-22T12:13:51.798Z,27.16
2019-04-22T12:16:21.280Z,27.21
2019-04-22T12:18:51.237Z,27.31
2019-04-22T12:21:21.332Z,27.25
2019-04-22T12:23:50.544Z,27.12
2019-04-22T12:26:21.091Z,27.83
2019-04-22T12:28:50.879Z,27.40
2019-04-22T12:31:19.670Z,27.20
2019-04-22T12:33:49.641Z,27.49
2019-04-22T12:36:18.388Z,27.52
2019-04-22T12:38:47.517Z,27.77
2019-04-22T12:41:17.740Z,27.75
2019-04-22T12:43:47.425Z,27.76
2019-04-22T12:46:16.428Z,27.92
2019-04-22T12:48:45.411Z,28.01
2019-04-22T12:51:15.479Z,28.03
2019-04-22T12:53:45.876Z,28.18
2019-04-22T12:56:15.429Z,28.30
2019-04-22T12:58:45.541Z,28.17
2019-04-22T13:01:15.136Z,28.16
2019-04-22T13:03:44.672Z,28.45
2019-04-22T13:06:14.240Z,28.41
2019-04-22T13:08:43.586Z,28.59
2019-04-22T13:11:14.460Z,28.60
2019-04-22T13:13:42.774Z,29.30
2019-04-22T13:16:11.336Z,28.51
2019-04-22T13:18:47.256Z,28.53
2019-04-22T13:21:10.822Z,28.49
2019-04-22T13:23:41.111Z,28.44
2019-04-22T13:26:10.676Z,28.37
2019-04-22T13:28:39.222Z,28.40
2019-04-22T13:31:07.846Z,27.83
2019-04-22T13:33:36.961Z,28.13
2019-04-22T13:36:05.983Z,28.26
2019-04-22T13:38:35.343Z,28.26
2019-04-22T13:41:16.491Z,28.04
2019-04-22T13:43:34.760Z,28.10
2019-04-22T13:46:03.865Z,28.09
2019-04-22T13:48:53.310Z,28.28
2019-04-22T13:54:30.186Z,28.21
2019-04-22T13:56:28.391Z,28.16
2019-04-22T13:58:48.409Z,28.30
2019-04-22T14:01:12.559Z,28.27
2019-04-22T14:03:54.656Z,28.21
2019-04-22T14:06:23.067Z,28.08
2019-04-22T14:08:51.580Z,28.16
2019-04-22T14:11:30.040Z,28.01
2019-04-22T14:13:50.336Z,28.14
2019-04-22T14:16:19.530Z,28.00
2019-04-22T14:18:48.046Z,28.03
2019-04-22T14:21:16.904Z,27.93
2019-04-22T14:23:46.785Z,27.86
2019-04-22T14:26:15.503Z,27.90
2019-04-22T14:28:43.962Z,27.84
2019-04-22T14:31:12.773Z,27.76
2019-04-22T14:33:46.282Z,27.80
2019-04-22T14:36:11.724Z,27.85
2019-04-22T14:38:41.812Z,27.77
2019-04-22T14:41:30.655Z,27.63
2019-04-22T14:44:38.279Z,27.78
2019-04-22T14:49:02.877Z,27.62
2019-04-22T14:51:27.893Z,27.70
2019-04-22T14:54:01.649Z,27.80
2019-04-22T14:56:12.764Z,27.65
2019-04-22T14:58:40.822Z,27.58
2019-04-22T15:01:10.774Z,28.28
2019-04-22T15:03:42.335Z,27.59
2019-04-22T15:06:10.579Z,27.46
2019-04-22T15:08:39.465Z,27.31
2019-04-22T15:11:08.748Z,27.31
2019-04-22T15:13:39.032Z,27.15
2019-04-22T15:16:18.246Z,27.05
2019-04-22T15:18:58.064Z,27.01
2019-04-22T15:21:28.899Z,26.85
2019-04-22T15:24:00.410Z,26.77
2019-04-22T15:26:30.555Z,26.81
2019-04-22T15:28:59.973Z,26.65
2019-04-22T15:31:29.160Z,26.56
2019-04-22T15:33:58.382Z,26.39
2019-04-22T15:36:28.285Z,26.47
2019-04-22T15:38:57.591Z,26.54
2019-04-22T15:41:26.179Z,26.43
2019-04-22T15:43:54.605Z,26.48
2019-04-22T15:46:23.533Z,26.43
2019-04-22T15:48:53.634Z,26.37
2019-04-22T15:51:22.584Z,26.38
2019-04-22T15:53:51.932Z,26.20
2019-04-22T15:56:21.101Z,26.24
2019-04-22T15:58:51.330Z,26.27
2019-04-22T16:01:26.371Z,26.25
2019-04-22T16:03:50.295Z,26.17
2019-04-22T16:06:19.959Z,26.70
2019-04-22T16:08:49.825Z,26.21
2019-04-22T16:11:18.358Z,26.01
2019-04-22T16:13:46.783Z,26.09
2019-04-22T16:16:16.487Z,25.95
2019-04-22T16:18:46.382Z,25.83
2019-04-22T16:21:27.662Z,25.80
2019-04-22T16:23:46.636Z,25.67
2019-04-22T16:26:18.037Z,26.30
2019-04-22T16:28:47.316Z,25.75
2019-04-22T16:31:17.494Z,25.62
2019-04-22T16:33:47.426Z,25.60
2019-04-22T16:36:16.716Z,26.12
2019-04-22T16:38:46.541Z,25.45
2019-04-22T16:41:16.842Z,25.38
2019-04-22T16:43:44.802Z,25.39
2019-04-22T16:46:13.870Z,25.95
2019-04-22T16:48:43.386Z,25.28
2019-04-22T16:51:12.089Z,25.32
2019-04-22T16:53:43.207Z,25.17
2019-04-22T16:56:12.945Z,25.12
2019-04-22T16:58:42.937Z,24.97
2019-04-22T17:01:20.717Z,24.96
2019-04-22T17:04:07.013Z,24.84
2019-04-22T17:06:41.457Z,24.67
2019-04-22T17:09:10.941Z,24.53
2019-04-22T17:11:43.636Z,24.30
2019-04-22T17:14:34.910Z,24.25
2019-04-22T17:16:56.905Z,24.08
2019-04-22T17:19:31.139Z,23.95
2019-04-22T17:25:32.135Z,23.74
2019-04-22T17:28:11.206Z,23.65
2019-04-22T17:30:49.670Z,23.51
2019-04-22T17:36:05.370Z,23.18
2019-04-22T17:38:48.674Z,23.16
2019-04-22T17:41:24.322Z,22.98
2019-04-22T17:44:25.023Z,22.81
2019-04-22T17:46:33.621Z,22.69
2019-04-22T17:49:27.014Z,22.39
2019-04-22T17:52:15.653Z,22.24
2019-04-22T17:54:38.001Z,22.52
2019-04-22T17:57:06.269Z,21.96
2019-04-22T17:59:39.309Z,21.73
2019-04-22T18:02:03.063Z,21.57
2019-04-22T18:04:17.982Z,21.45
2019-04-22T18:07:12.113Z,21.72
2019-04-22T18:10:06.646Z,21.26
2019-04-22T18:12:12.178Z,21.12
2019-04-22T18:14:59.632Z,21.01
2019-04-22T18:17:11.227Z,20.84
2019-04-22T18:19:39.948Z,20.68
2019-04-22T18:22:02.475Z,20.51
2019-04-22T18:24:28.319Z,20.81
2019-04-22T18:27:29.018Z,20.20
2019-04-22T18:29:41.072Z,20.03
2019-04-22T18:32:05.346Z,19.84
2019-04-22T18:34:35.108Z,19.68
2019-04-22T18:37:03.971Z,19.91
2019-04-22T18:39:40.596Z,19.43
2019-04-22T18:42:05.727Z,19.25
2019-04-22T18:44:39.916Z,19.10
2019-04-22T18:47:07.309Z,19.34
2019-04-22T18:49:37.631Z,18.93
2019-04-22T18:52:18.270Z,18.72
2019-04-22T18:54:54.735Z,18.61
2019-04-22T18:57:22.610Z,18.50
2019-04-22T18:59:39.156Z,18.40
2019-04-22T19:02:08.995Z,18.32
2019-04-22T19:04:44.609Z,18.21
2019-04-22T19:07:32.456Z,18.14
2019-04-22T19:10:04.880Z,18.03
2019-04-22T19:14:56.799Z,17.94
2019-04-22T19:17:35.607Z,17.84
2019-04-22T19:20:05.439Z,17.74
2019-04-22T19:22:29.808Z,18.00
2019-04-22T19:24:47.951Z,17.63
2019-04-22T19:27:26.763Z,17.86
2019-04-22T19:29:57.324Z,17.48
2019-04-22T19:32:25.480Z,17.39
2019-04-22T19:34:55.642Z,17.32
2019-04-22T19:37:23.644Z,17.26
2019-04-22T19:40:04.521Z,17.20
2019-04-22T19:42:45.516Z,17.15
2019-04-22T19:44:55.003Z,17.08
2019-04-22T19:47:43.468Z,17.33
2019-04-22T19:50:05.954Z,17.03
2019-04-22T19:52:28.725Z,16.93
2019-04-22T19:55:01.799Z,16.88
2019-04-22T19:57:31.355Z,16.92
2019-04-22T19:59:57.421Z,16.96
2019-04-22T20:02:35.883Z,17.19
2019-04-22T20:05:23.122Z,17.01
2019-04-22T20:07:41.624Z,16.98
2019-04-22T20:10:19.063Z,17.04
2019-04-22T20:12:46.769Z,17.01
2019-04-22T20:15:15.653Z,17.00
2019-04-22T20:17:59.384Z,17.06
2019-04-22T20:20:23.115Z,17.05
2019-04-22T20:22:44.463Z,17.06
2019-04-22T20:25:07.462Z,17.02
2019-04-22T20:27:55.867Z,16.98
2019-04-22T20:30:24.754Z,16.97
2019-04-22T20:32:51.147Z,16.92
2019-04-22T20:35:30.807Z,16.93
2019-04-22T20:37:56.753Z,16.87
2019-04-22T20:40:31.164Z,16.78
2019-04-22T20:43:23.536Z,16.74
2019-04-22T20:45:36.432Z,16.69
2019-04-22T20:47:53.910Z,16.68
2019-04-22T20:50:36.133Z,16.69
2019-04-22T20:53:06.892Z,16.58
2019-04-22T20:55:27.986Z,16.53
2019-04-22T20:58:06.471Z,16.48
2019-04-22T21:00:25.154Z,16.42
2019-04-22T21:02:53.945Z,16.66
2019-04-22T21:05:25.076Z,16.39
2019-04-22T21:08:06.354Z,16.36
2019-04-22T21:10:28.313Z,16.26
2019-04-22T21:13:00.134Z,16.23
2019-04-22T21:15:36.906Z,16.21
2019-04-22T21:18:05.784Z,16.16
2019-04-22T21:20:36.595Z,16.16
2019-04-22T21:23:05.607Z,16.10
2019-04-22T21:25:30.772Z,16.04
2019-04-22T21:28:09.984Z,16.03
2019-04-22T21:30:37.481Z,15.98
2019-04-22T21:33:04.068Z,15.92
2019-04-22T21:35:53.947Z,16.15
2019-04-22T21:38:08.746Z,15.89
2019-04-22T21:40:34.050Z,16.08
2019-04-22T21:43:13.096Z,15.79
2019-04-22T21:45:28.071Z,15.73
2019-04-22T21:48:20.555Z,15.70
2019-04-22T21:50:50.168Z,15.65
2019-04-22T21:53:14.589Z,15.65
2019-04-22T21:55:45.028Z,15.61
2019-04-22T21:58:20.986Z,15.60
2019-04-22T22:03:23.570Z,15.52
2019-04-22T22:05:42.148Z,15.49
2019-04-22T22:08:28.195Z,15.49
2019-04-22T22:10:52.328Z,15.41
2019-04-22T22:13:15.572Z,15.69
2019-04-22T22:15:53.766Z,15.40
2019-04-22T22:18:12.305Z,15.31
2019-04-22T22:20:53.826Z,15.29
2019-04-22T22:23:29.437Z,15.24
2019-04-22T22:25:50.768Z,15.22
2019-04-22T22:28:40.023Z,15.21
2019-04-22T22:31:03.437Z,15.13
2019-04-22T22:33:27.183Z,15.10
2019-04-22T22:35:57.357Z,15.06
2019-04-22T22:38:23.028Z,15.00
2019-04-22T22:40:35.978Z,14.97
2019-04-22T22:43:14.477Z,14.96
2019-04-22T22:45:41.356Z,14.92
2019-04-22T22:48:36.493Z,14.90
2019-04-22T22:50:52.195Z,14.87
2019-04-22T22:55:53.344Z,14.81
2019-04-22T22:58:29.291Z,14.79
2019-04-22T23:00:52.494Z,14.77
2019-04-22T23:03:48.330Z,14.76
2019-04-22T23:05:56.895Z,14.76
2019-04-22T23:08:38.237Z,14.72
2019-04-22T23:11:00.288Z,14.71
2019-04-22T23:15:50.889Z,14.68
2019-04-22T23:18:05.982Z,14.67
2019-04-22T23:20:39.863Z,14.62
2019-04-22T23:23:29.738Z,14.59
2019-04-22T23:26:03.848Z,14.55
2019-04-22T23:28:35.302Z,14.54
2019-04-22T23:31:07.630Z,14.51
2019-04-22T23:33:42.502Z,14.50
2019-04-22T23:36:19.166Z,14.51
2019-04-22T23:38:56.610Z,14.47
2019-04-22T23:46:39.647Z,14.47
2019-04-22T23:49:08.022Z,14.48
2019-04-22T23:51:39.657Z,14.47
2019-04-22T23:54:20.420Z,14.51
2019-04-22T23:56:38.044Z,14.51
2019-04-22T23:59:12.455Z,14.49
